Seven Seas Mariner — C6VV8 — position and weather

sailwx.info

Track history (hours):
 
Tides and Currents Weather Stations Pressure Air Temp Water Temp Dewpoint Dewpoint Depression Visibility Wind Speed Wind Dir Waves Ship Positions

Seven Seas Mariner

Last reported at 2017-Aug-23 13:30 UTC. Time now 2017-Aug-23 13:53 UTC.
Position N 49°18' W 123°07'.

Length 216 m; draft 7.2 m.

Type: Ship. MMSI: 311622000.

Date/timePositionNaut miles runAvg speedWind from/ knotsBaromVisibWave heightAir tempDewpointWater temp
2017-Aug-23 13:30N 49°18' W 123°07'4 8.0
2017-Aug-23 13:00N 49°19' W 123°13'5 9.0
2017-Aug-23 12:30N 49°18' W 123°19'4 9.0
2017-Aug-23 12:00N 49°18' W 123°26'4 9.0
2017-Aug-23 11:30N 49°19' W 123°33'4 9.0
2017-Aug-23 11:00N 49°19' W 123°40'4 8.9
2017-Aug-23 10:30N 49°19' W 123°47'4 8.9
2017-Aug-23 10:00N 49°20' W 123°53'4 8.8
2017-Aug-23 09:30N 49°22' W 124°00'4 8.8
2017-Aug-23 09:00N 49°23' W 124°06'4 9.0
2017-Aug-23 08:30N 49°24' W 124°13'4 8.7
2017-Aug-23 08:00N 49°25' W 124°19'4 8.9
2017-Aug-23 07:30N 49°27' W 124°26'4 8.7
2017-Aug-23 07:01N 49°30' W 124°30'4 8.8
2017-Aug-23 06:30N 49°34' W 124°34'4 8.8
2017-Aug-23 06:00N 49°37' W 124°39'4 8.7
2017-Aug-23 05:30N 49°40' W 124°43'4 8.8
2017-Aug-23 05:00N 49°44' W 124°48'4 8.4
2017-Aug-23 04:31N 49°47' W 124°53'4 8.3
2017-Aug-23 04:00N 49°50' W 124°57'4 8.8
2017-Aug-23 03:30N 49°53' W 125°02'4 8.7
2017-Aug-23 03:00N 49°56' W 125°07'510.2
2017-Aug-23 02:30N 49°59' W 125°12'611.4
2017-Aug-23 02:00N 50°05' W 125°16'612.2
2017-Aug-23 01:30N 50°10' W 125°22'713.6
2017-Aug-23 01:00N 50°16' W 125°24'1213.2
2017-Aug-23 00:04N 50°22' W 125°41'415.0
2017-Aug-22 23:49N 50°22' W 125°47'2816.1
2017-Aug-22 22:05N 50°30' W 126°29'218.3
2017-Aug-22 21:59N 50°30' W 126°32'1015.4
2017-Aug-22 21:21N 50°36' W 126°44'719.6
2017-Aug-22 21:00N 50°41' W 126°52'3818.2
2017-Aug-22 18:55N 50°58' W 127°46'613.9
2017-Aug-22 18:30N 51°01' W 127°54'918.3
2017-Aug-22 17:59N 51°05' W 128°07'918.7
2017-Aug-22 17:30N 51°08' W 128°20'1019.7
2017-Aug-22 17:00N 51°13' W 128°34'1019.3
2017-Aug-22 16:30N 51°19' W 128°47'1019.5
2017-Aug-22 16:00N 51°25' W 128°59'1019.0
2017-Aug-22 15:30N 51°31' W 129°11'918.0
2017-Aug-22 15:00N 51°36' W 129°23'22717.4
2017-Aug-22 02:00N 55°12' W 131°18'   180 / 291013.6 2.2 11.0 9.211.0
2017-Aug-19 03:00N 56°48' W 135°36'31412.6 250 / 191016.2 5.4 16.012.716.0
2017-Aug-18 02:00N 59°30' W 144°06'   180 / 181003.7 5.4 12.0 8.312.0
2017-Aug-14 07:36N 58°18' W 136°15'219.4
2017-Aug-14 07:30N 58°19' W 136°11'918.8
2017-Aug-14 07:00N 58°19' W 135°53'1019.6
2017-Aug-14 06:28N 58°16' W 135°34'4613.1
2017-Aug-14 03:00N 59°00' W 135°12'   360 / 161004.2 5.4 15.013.315.0
Track history (hours):
 
Tides and Currents Weather Stations Pressure Air Temp Water Temp Dewpoint Dewpoint Depression Visibility Wind Speed Wind Dir Waves Ship Positions

Seven Seas Mariner

Last reported at 2017-Aug-23 13:30 UTC. Time now 2017-Aug-23 13:53 UTC.
Position N 49°18' W 123°07'.

Length 216 m; draft 7.2 m.

Type: Ship. MMSI: 311622000.

Date/timePositionNaut miles runAvg speedWind from/ knotsBaromVisibWave heightAir tempDewpointWater temp
2017-Aug-23 13:30N 49°18' W 123°07'4 8.0
2017-Aug-23 13:00N 49°19' W 123°13'5 9.0
2017-Aug-23 12:30N 49°18' W 123°19'4 9.0
2017-Aug-23 12:00N 49°18' W 123°26'4 9.0
2017-Aug-23 11:30N 49°19' W 123°33'4 9.0
2017-Aug-23 11:00N 49°19' W 123°40'4 8.9
2017-Aug-23 10:30N 49°19' W 123°47'4 8.9
2017-Aug-23 10:00N 49°20' W 123°53'4 8.8
2017-Aug-23 09:30N 49°22' W 124°00'4 8.8
2017-Aug-23 09:00N 49°23' W 124°06'4 9.0
2017-Aug-23 08:30N 49°24' W 124°13'4 8.7
2017-Aug-23 08:00N 49°25' W 124°19'4 8.9
2017-Aug-23 07:30N 49°27' W 124°26'4 8.7
2017-Aug-23 07:01N 49°30' W 124°30'4 8.8
2017-Aug-23 06:30N 49°34' W 124°34'4 8.8
2017-Aug-23 06:00N 49°37' W 124°39'4 8.7
2017-Aug-23 05:30N 49°40' W 124°43'4 8.8
2017-Aug-23 05:00N 49°44' W 124°48'4 8.4
2017-Aug-23 04:31N 49°47' W 124°53'4 8.3
2017-Aug-23 04:00N 49°50' W 124°57'4 8.8
2017-Aug-23 03:30N 49°53' W 125°02'4 8.7
2017-Aug-23 03:00N 49°56' W 125°07'510.2
2017-Aug-23 02:30N 49°59' W 125°12'611.4
2017-Aug-23 02:00N 50°05' W 125°16'612.2
2017-Aug-23 01:30N 50°10' W 125°22'713.6
2017-Aug-23 01:00N 50°16' W 125°24'1213.2
2017-Aug-23 00:04N 50°22' W 125°41'415.0
2017-Aug-22 23:49N 50°22' W 125°47'2816.1
2017-Aug-22 22:05N 50°30' W 126°29'218.3
2017-Aug-22 21:59N 50°30' W 126°32'1015.4
2017-Aug-22 21:21N 50°36' W 126°44'719.6
2017-Aug-22 21:00N 50°41' W 126°52'3818.2
2017-Aug-22 18:55N 50°58' W 127°46'613.9
2017-Aug-22 18:30N 51°01' W 127°54'918.3
2017-Aug-22 17:59N 51°05' W 128°07'918.7
2017-Aug-22 17:30N 51°08' W 128°20'1019.7
2017-Aug-22 17:00N 51°13' W 128°34'1019.3
2017-Aug-22 16:30N 51°19' W 128°47'1019.5
2017-Aug-22 16:00N 51°25' W 128°59'1019.0
2017-Aug-22 15:30N 51°31' W 129°11'918.0
2017-Aug-22 15:00N 51°36' W 129°23'22717.4
2017-Aug-22 02:00N 55°12' W 131°18'   180 / 291013.6 2.2 11.0 9.211.0
2017-Aug-19 03:00N 56°48' W 135°36'31412.6 250 / 191016.2 5.4 16.012.716.0
2017-Aug-18 02:00N 59°30' W 144°06'   180 / 181003.7 5.4 12.0 8.312.0
2017-Aug-14 07:36N 58°18' W 136°15'219.4
2017-Aug-14 07:30N 58°19' W 136°11'918.8
2017-Aug-14 07:00N 58°19' W 135°53'1019.6
2017-Aug-14 06:28N 58°16' W 135°34'4613.1
2017-Aug-14 03:00N 59°00' W 135°12'   360 / 161004.2 5.4 15.013.315.0

Dump ship's entire track history